PWSweather.com
Personal Weather Stations
Station Observations
KMILAPEE3
Lapeer Michigan, Lapeer, MI 48446

Lapeer MichiganLapeer, MI 48446

Lat: 43.057, Lon: -83.362

Elevation: 897

Station Type: Oregon Scientific WMR-968

Latest ConditionsUpdated 2:58:57 AM EDT Friday, Oct 24, 2014
Currently Today's Max Today's Min Today's Average
Temperature 30.9°F-0.6°C 32.5°F0.3°C 30.9°F-0.6°C 31.6°F-0.2°C
Dew Point 18.9°F-7.3°C 19.3°F-7.1°C 18.0°F-7.8°C 18.7°F-7.4°C
Winds Calm Calm 3.8 mph W6.1 kmh W - 0.3 mph 0.5 kmh
Wind Gusts -- 5.5 mph8.9 kmh - -
Humidity 61% 61% 56% 59%
Pressure 30.38 in1028.8 mb 30.38 in1028.8 mb 30.21 in1023.0 mb -
Hour Temp Dew Point Humidity Winds Wind Gusts Pressure Precip Precip Rate Daily Precip Total
02:58 AM 30.9°F-0.6°C 18.9°F-7.3°C 61% Calm Calm -- 30.38 in1028.8 mb 0.00 in0.0 mm 0.00 in/hr0.0 mm/hr 0.00 in0.0 mm
02:53 AM 30.9°F-0.6°C 18.9°F-7.3°C 61% Calm Calm -- 30.38 in1028.8 mb 0.00 in0.0 mm 0.00 in/hr0.0 mm/hr 0.00 in0.0 mm
02:48 AM 31.1°F-0.5°C 19.1°F-7.2°C 61% Calm Calm -- 30.38 in1028.8 mb 0.00 in0.0 mm 0.00 in/hr0.0 mm/hr 0.00 in0.0 mm
02:43 AM 31.1°F-0.5°C 19.1°F-7.2°C 61% Calm Calm -- 30.35 in1027.8 mb 0.00 in0.0 mm 0.00 in/hr0.0 mm/hr 0.00 in0.0 mm
02:38 AM 31.3°F-0.4°C 19.3°F-7.1°C 61% Calm Calm -- 30.35 in1027.8 mb 0.00 in0.0 mm 0.00 in/hr0.0 mm/hr 0.00 in0.0 mm
02:33 AM 31.1°F-0.5°C 19.1°F-7.2°C 61% Calm Calm -- 30.35 in1027.8 mb 0.00 in0.0 mm 0.00 in/hr0.0 mm/hr 0.00 in0.0 mm
02:28 AM 31.1°F-0.5°C 18.6°F-7.4°C 59% Calm Calm -- 30.32 in1026.8 mb 0.00 in0.0 mm 0.00 in/hr0.0 mm/hr 0.00 in0.0 mm
02:23 AM 31.3°F-0.4°C 18.8°F-7.3°C 59% Calm Calm -- 30.32 in1026.8 mb 0.00 in0.0 mm 0.00 in/hr0.0 mm/hr 0.00 in0.0 mm
02:18 AM 31.3°F-0.4°C 18.8°F-7.3°C 60% Calm Calm -- 30.32 in1026.8 mb 0.00 in0.0 mm 0.00 in/hr0.0 mm/hr 0.00 in0.0 mm
02:13 AM 31.5°F-0.3°C 19.0°F-7.2°C 60% Calm Calm 4.9 mph7.9 kmh 30.29 in1025.7 mb 0.00 in0.0 mm 0.00 in/hr0.0 mm/hr 0.00 in0.0 mm
02:08 AM 31.5°F-0.3°C 19.1°F-7.2°C 60% 2.8 mph W4.5 kmh W 5.5 mph8.9 kmh 30.29 in1025.7 mb 0.00 in0.0 mm 0.00 in/hr0.0 mm/hr 0.00 in0.0 mm
02:03 AM 31.5°F-0.3°C 19.1°F-7.2°C 60% 3.8 mph W6.1 kmh W 5.5 mph8.9 kmh 30.29 in1025.7 mb 0.00 in0.0 mm 0.00 in/hr0.0 mm/hr 0.00 in0.0 mm
01:58 AM 31.1°F-0.5°C 18.7°F-7.4°C 60% Calm Calm -- 30.29 in1025.7 mb 0.00 in0.0 mm 0.00 in/hr0.0 mm/hr 0.00 in0.0 mm
01:53 AM 31.1°F-0.5°C 18.7°F-7.4°C 60% Calm Calm -- 30.29 in1025.7 mb 0.00 in0.0 mm 0.00 in/hr0.0 mm/hr 0.00 in0.0 mm
01:48 AM 31.3°F-0.4°C 18.9°F-7.3°C 60% Calm Calm -- 30.29 in1025.7 mb 0.00 in0.0 mm 0.00 in/hr0.0 mm/hr 0.00 in0.0 mm
01:43 AM 31.5°F-0.3°C 19.1°F-7.2°C 60% Calm Calm -- 30.26 in1024.7 mb 0.00 in0.0 mm 0.00 in/hr0.0 mm/hr 0.00 in0.0 mm
01:38 AM 31.6°F-0.2°C 19.2°F-7.1°C 60% Calm Calm -- 30.26 in1024.7 mb 0.00 in0.0 mm 0.00 in/hr0.0 mm/hr 0.00 in0.0 mm
01:33 AM 31.6°F-0.2°C 19.2°F-7.1°C 60% Calm Calm -- 30.26 in1024.7 mb 0.00 in0.0 mm 0.00 in/hr0.0 mm/hr 0.00 in0.0 mm
01:28 AM 31.5°F-0.3°C 18.6°F-7.4°C 58% Calm Calm -- 30.26 in1024.7 mb 0.00 in0.0 mm 0.00 in/hr0.0 mm/hr 0.00 in0.0 mm
01:22 AM 31.3°F-0.4°C 18.4°F-7.6°C 59% Calm Calm -- 30.26 in1024.7 mb 0.00 in0.0 mm 0.00 in/hr0.0 mm/hr 0.00 in0.0 mm
01:17 AM 31.3°F-0.4°C 18.4°F-7.6°C 59% Calm Calm -- 30.26 in1024.7 mb 0.00 in0.0 mm 0.00 in/hr0.0 mm/hr 0.00 in0.0 mm
01:12 AM 31.3°F-0.4°C 18.0°F-7.8°C 57% Calm Calm -- 30.23 in1023.7 mb 0.00 in0.0 mm 0.00 in/hr0.0 mm/hr 0.00 in0.0 mm
01:07 AM 31.3°F-0.4°C 18.0°F-7.8°C 57% Calm Calm -- 30.23 in1023.7 mb 0.00 in0.0 mm 0.00 in/hr0.0 mm/hr 0.00 in0.0 mm
01:01 AM 31.5°F-0.3°C 18.2°F-7.7°C 57% Calm Calm -- 30.23 in1023.7 mb 0.00 in0.0 mm 0.00 in/hr0.0 mm/hr 0.00 in0.0 mm
12:56 AM 31.6°F-0.2°C 18.3°F-7.6°C 57% Calm Calm -- 30.23 in1023.7 mb 0.00 in0.0 mm 0.00 in/hr0.0 mm/hr 0.00 in0.0 mm
12:51 AM 31.6°F-0.2°C 18.3°F-7.6°C 57% Calm Calm -- 30.23 in1023.7 mb 0.00 in0.0 mm 0.00 in/hr0.0 mm/hr 0.00 in0.0 mm
12:46 AM 31.6°F-0.2°C 18.3°F-7.6°C 57% Calm Calm -- 30.23 in1023.7 mb 0.00 in0.0 mm 0.00 in/hr0.0 mm/hr 0.00 in0.0 mm
12:41 AM 31.8°F-0.1°C 18.5°F-7.5°C 57% Calm Calm -- 30.23 in1023.7 mb 0.00 in0.0 mm 0.00 in/hr0.0 mm/hr 0.00 in0.0 mm
12:36 AM 32.0°F0.0°C 18.7°F-7.4°C 57% Calm Calm -- 30.23 in1023.7 mb 0.00 in0.0 mm 0.00 in/hr0.0 mm/hr 0.00 in0.0 mm
12:30 AM 32.0°F0.0°C 18.2°F-7.7°C 56% Calm Calm 3.7 mph6.0 kmh 30.23 in1023.7 mb 0.00 in0.0 mm 0.00 in/hr0.0 mm/hr 0.00 in0.0 mm
12:25 AM 32.2°F0.1°C 18.4°F-7.6°C 56% Calm Calm 4.3 mph6.9 kmh 30.23 in1023.7 mb 0.00 in0.0 mm 0.00 in/hr0.0 mm/hr 0.00 in0.0 mm
12:20 AM 32.4°F0.2°C 18.5°F-7.5°C 56% 2.8 mph W4.5 kmh W 4.3 mph6.9 kmh 30.23 in1023.7 mb 0.00 in0.0 mm 0.00 in/hr0.0 mm/hr 0.00 in0.0 mm
12:15 AM 32.5°F0.3°C 18.6°F-7.4°C 56% Calm Calm -- 30.23 in1023.7 mb 0.00 in0.0 mm 0.00 in/hr0.0 mm/hr 0.00 in0.0 mm
12:10 AM 32.5°F0.3°C 18.6°F-7.4°C 56% Calm Calm -- 30.23 in1023.7 mb 0.00 in0.0 mm 0.00 in/hr0.0 mm/hr 0.00 in0.0 mm
12:05 AM 32.5°F0.3°C 18.6°F-7.4°C 56% Calm Calm -- 30.23 in1023.7 mb 0.00 in0.0 mm 0.00 in/hr0.0 mm/hr 0.00 in0.0 mm
12:00 AM 32.5°F0.3°C 18.6°F-7.4°C 56% Calm Calm -- 30.21 in1023.0 mb 0.00 in0.0 mm 0.00 in/hr0.0 mm/hr 0.00 in0.0 mm